Hovedside
METAR-TAF:

METAR-TAF

Lufthavner :

Mersing, Malaysia

breddegrad: 02-23-00N, lengdegrad: 103-51-34E, høyde over havet: 3 m

Gjeldene værobservasjon

Denne rapporten ble laget for 16 minutter siden, klokken 19:00 UTC
Vind 5 kt fra Sørvest
Temperatur 25°C
Luftfuktighet 94%
Trykk 1008 hPa
Sikt: 8000 m
Få skyer i en høyde av 300 ft

METAR: WMAU 251900Z 23005KT 8000 FEW003 25/24 Q1008

Tid: 03:16 (19:16 UTC)


TAF: fraværende

Værobservasjoner og værvarsel for over 4000 flyplasser (METAR- og TAF-rapporter).

Tilgjengelige stasjoner er representert av de røde og gule prikkene på kartet.

Hold musepekeren over prikken for å se navnet på stasjonen.

Klikk så for å se værobservasjoner og -varsler.

For å forandre kartet kan du klikke på den grønne knappen med svart kryss for å zoome inn, på den grønne knappen med strek for å zoome ut, eller på de grønne pilene for å se tilstøtende kart.


METAR-TAF: